KAQO

Details ICAO KAQO
Name LLANO MUNI
Region United States
Timezone America/Chicago (UTC-5.0)
Plans Departing 5
Arriving 13
Stats Elevation 1,102 ft / 336 m (AMSL)
Location 30.784617° -98.659987°
Runways 2
Magnetic Variation 4.316° E
Sunrise 2018-05-21 11:37:43 UTC / 2018-05-21 06:37:43 Local
Sunset 2018-05-22 01:27:38 UTC / 2018-05-21 20:27:38 Local
Advertisement - Login to hide

Runways

ID Width Length Bearing (true) Bearing (mag) Surface Threshold Offset Overrun Length
13 150 ft / 46 m 3,244 ft / 989 m 137.67° 133.35° Grass 0 ft / 0 m 0 ft / 0 m
17 75 ft / 23 m 4,215 ft / 1,285 m 179.22° 174.90° Asphalt 0 ft / 0 m 0 ft / 0 m
31 150 ft / 46 m 3,244 ft / 989 m 317.68° 313.36° Grass 0 ft / 0 m 0 ft / 0 m
35 75 ft / 23 m 4,215 ft / 1,285 m 359.22° 354.90° Asphalt 0 ft / 0 m 0 ft / 0 m

Map

Weather


0- 5 10 15 20 25 30 35+ Temperature / ° C

Clouds and Precipitation
Forecast for 2018-05-22 00:00 UTC. Updated 2 hours ago

Ground ~20,000 ft ~40,000 ft Winds

METAR

KAQO 220115Z AUTO 00000KT 10SM CLR 27/19 A2998 RMK AO2

TAF

Not found

Frequencies

Recorded 119.42 MHz AWOS 3
Unicom 122.80 MHz CTAF/UNICOM
Warning: Do not use this data for real-world aviation or navigation. No guarantee of current accuracy is given.